createdAt,value
2022-08-22T00:04:24.526Z,51.95
2022-08-22T00:05:29.002Z,52.12
2022-08-22T00:06:33.542Z,51.95
2022-08-22T00:07:38.149Z,52.13
2022-08-22T00:08:42.751Z,52.08
2022-08-22T00:09:47.455Z,52.28
2022-08-22T00:10:51.984Z,52.11
2022-08-22T00:11:56.638Z,52.52
2022-08-22T00:13:01.185Z,52.03
2022-08-22T00:14:06.083Z,52.37
2022-08-22T00:15:44.449Z,52.09
2022-08-22T00:16:49.438Z,52.39
2022-08-22T00:17:54.619Z,52.26
2022-08-22T00:18:59.485Z,52.28
2022-08-22T00:20:03.931Z,52.17
2022-08-22T00:21:08.363Z,52.25
2022-08-22T00:22:12.788Z,52.06
2022-08-22T00:23:17.231Z,52.01
2022-08-22T00:24:21.711Z,52.24
2022-08-22T00:25:27.993Z,52.26
2022-08-22T00:26:32.719Z,52.35
2022-08-22T00:27:37.163Z,52.52
2022-08-22T00:28:49.363Z,52.31
2022-08-22T00:29:54.489Z,52.18
2022-08-22T00:30:58.878Z,52.74
2022-08-22T00:32:06.036Z,52.83
2022-08-22T00:33:10.413Z,52.41
2022-08-22T00:34:14.839Z,52.46
2022-08-22T00:35:19.264Z,52.23
2022-08-22T00:36:23.665Z,52.28
2022-08-22T00:37:28.044Z,52.84
2022-08-22T00:38:32.485Z,52.71
2022-08-22T00:39:36.948Z,52.37
2022-08-22T00:40:41.416Z,53.15
2022-08-22T00:41:45.835Z,52.7
2022-08-22T00:42:50.269Z,52.76
2022-08-22T00:43:54.678Z,52.94
2022-08-22T00:44:59.095Z,52.86
2022-08-22T00:46:03.482Z,52.67
2022-08-22T00:47:07.879Z,52.74
2022-08-22T00:48:16.373Z,53.04
2022-08-22T00:49:20.817Z,52.84
2022-08-22T00:50:26.950Z,52.75
2022-08-22T00:51:31.396Z,52.87
2022-08-22T00:52:35.829Z,52.72
2022-08-22T00:53:40.267Z,52.46
2022-08-22T00:54:44.811Z,52.66
2022-08-22T00:55:49.194Z,52.68
2022-08-22T00:56:53.622Z,52.71
2022-08-22T00:57:58.400Z,52.67
2022-08-22T00:59:25.298Z,52.46
2022-08-22T01:00:29.744Z,52.57
2022-08-22T01:01:39.719Z,52.61
2022-08-22T01:02:44.134Z,52.6
2022-08-22T01:03:48.543Z,52.43
2022-08-22T01:04:52.957Z,52.38
2022-08-22T01:05:57.420Z,52.36
2022-08-22T01:07:01.813Z,52.46
2022-08-22T01:08:06.242Z,52.58
2022-08-22T01:09:10.633Z,52.42
2022-08-22T01:10:15.042Z,52.46
2022-08-22T01:11:19.673Z,52.48
2022-08-22T01:12:24.095Z,52.74
2022-08-22T01:13:28.510Z,52.7
2022-08-22T01:14:37.161Z,52.58
2022-08-22T01:15:41.607Z,52.49
2022-08-22T01:16:46.065Z,52.67
2022-08-22T01:17:50.720Z,52.78
2022-08-22T01:18:55.278Z,52.88
2022-08-22T01:19:59.870Z,53.16
2022-08-22T01:21:04.416Z,53.04
2022-08-22T01:22:08.950Z,53.16
2022-08-22T01:23:13.359Z,53.09
2022-08-22T01:24:20.479Z,53.04
2022-08-22T01:25:29.074Z,53.2
2022-08-22T01:26:33.972Z,53.12
2022-08-22T01:27:38.587Z,53.36
2022-08-22T01:28:44.945Z,52.99
2022-08-22T01:29:50.484Z,52.99
2022-08-22T01:30:54.933Z,53.48
2022-08-22T01:31:59.398Z,53.12
2022-08-22T01:33:03.802Z,53.15
2022-08-22T01:34:14.952Z,53.21
2022-08-22T01:35:19.394Z,53.11
2022-08-22T01:36:25.113Z,53.29
2022-08-22T01:37:29.609Z,53.17
2022-08-22T01:38:33.997Z,53.05
2022-08-22T01:39:38.501Z,53
2022-08-22T01:40:55.777Z,53.25
2022-08-22T01:42:00.664Z,53.38
2022-08-22T01:43:05.032Z,53.01
2022-08-22T01:44:09.371Z,53.18
2022-08-22T01:45:13.711Z,53.22
2022-08-22T01:46:26.934Z,52.86
2022-08-22T01:47:38.932Z,52.93
2022-08-22T01:48:43.300Z,52.88
2022-08-22T01:49:49.749Z,52.9
2022-08-22T01:50:54.106Z,52.93
2022-08-22T01:51:58.497Z,52.93
2022-08-22T01:53:02.846Z,52.93
2022-08-22T01:54:07.209Z,53.04
2022-08-22T01:55:11.558Z,52.79
2022-08-22T01:56:15.910Z,52.87
2022-08-22T01:57:20.279Z,52.99
2022-08-22T01:58:24.622Z,52.72
2022-08-22T01:59:43.109Z,52.76
2022-08-22T02:00:47.557Z,52.77
2022-08-22T02:01:51.934Z,52.86
2022-08-22T02:02:56.312Z,52.69
2022-08-22T02:04:00.678Z,52.72
2022-08-22T02:05:05.044Z,52.68
2022-08-22T02:06:15.380Z,52.77
2022-08-22T02:07:19.706Z,52.72
2022-08-22T02:08:24.052Z,52.48
2022-08-22T02:09:28.412Z,52.91
2022-08-22T02:10:32.825Z,52.97
2022-08-22T02:11:37.179Z,52.85
2022-08-22T02:12:41.514Z,52.95
2022-08-22T02:13:45.882Z,52.88
2022-08-22T02:14:50.247Z,52.77
2022-08-22T02:15:54.622Z,52.81
2022-08-22T02:16:58.955Z,52.78
2022-08-22T02:18:03.343Z,52.83
2022-08-22T02:19:07.695Z,52.59
2022-08-22T02:20:13.457Z,52.82
2022-08-22T02:21:17.802Z,52.78
2022-08-22T02:22:22.135Z,52.75
2022-08-22T02:23:26.450Z,52.73
2022-08-22T02:24:30.784Z,52.72
2022-08-22T02:25:35.135Z,52.65
2022-08-22T02:26:39.478Z,52.28
2022-08-22T02:27:43.826Z,52.51
2022-08-22T02:28:59.132Z,52.43
2022-08-22T02:30:04.984Z,52.41
2022-08-22T02:31:09.385Z,52.22
2022-08-22T02:32:13.741Z,52.33
2022-08-22T02:33:18.146Z,52.49
2022-08-22T02:34:22.518Z,52.28
2022-08-22T02:35:26.902Z,52.27
2022-08-22T02:36:31.252Z,52.12
2022-08-22T02:37:35.631Z,52.22
2022-08-22T02:38:40.020Z,52.21
2022-08-22T02:39:44.541Z,52.41
2022-08-22T02:40:48.963Z,52.14
2022-08-22T02:41:53.367Z,52.08
2022-08-22T02:42:57.796Z,52.06
2022-08-22T02:44:02.199Z,52.04
2022-08-22T02:45:06.633Z,52.04
2022-08-22T02:46:11.022Z,52.18
2022-08-22T02:47:17.557Z,52.1
2022-08-22T02:48:27.700Z,52
2022-08-22T02:49:35.022Z,52.06
2022-08-22T02:50:48.162Z,52.23
2022-08-22T02:51:52.571Z,52.11
2022-08-22T02:52:56.911Z,52.12
2022-08-22T02:54:01.312Z,51.98
2022-08-22T02:55:05.672Z,52.08
2022-08-22T02:56:10.023Z,52.06
2022-08-22T02:57:16.763Z,52.01
2022-08-22T02:58:21.777Z,51.92
2022-08-22T02:59:26.162Z,51.98
2022-08-22T03:00:35.189Z,52.05
2022-08-22T03:01:43.009Z,51.99
2022-08-22T03:02:47.380Z,51.96
2022-08-22T03:03:51.919Z,51.95
2022-08-22T03:04:56.352Z,51.96
2022-08-22T03:06:03.682Z,51.95
2022-08-22T03:07:08.034Z,52.01
2022-08-22T03:08:14.943Z,52.01
2022-08-22T03:09:19.275Z,51.94
2022-08-22T03:10:26.205Z,51.96
2022-08-22T03:11:30.572Z,52.06
2022-08-22T03:12:34.934Z,52
2022-08-22T03:13:39.324Z,51.97
2022-08-22T03:14:43.676Z,51.95
2022-08-22T03:15:51.465Z,51.97
2022-08-22T03:16:55.824Z,51.96
2022-08-22T03:18:00.978Z,51.96
2022-08-22T03:19:05.499Z,51.98
2022-08-22T03:20:10.176Z,52.03
2022-08-22T03:21:14.606Z,52.04
2022-08-22T03:22:18.982Z,51.98
2022-08-22T03:23:23.395Z,52.03
2022-08-22T03:24:27.784Z,52.1
2022-08-22T03:25:32.208Z,52.04
2022-08-22T03:26:36.543Z,51.97
2022-08-22T03:27:41.061Z,51.98
2022-08-22T03:29:01.914Z,51.94
2022-08-22T03:30:07.991Z,52.01
2022-08-22T03:31:13.628Z,52.16
2022-08-22T03:32:17.969Z,51.89
2022-08-22T03:33:22.343Z,51.91
2022-08-22T03:34:26.747Z,51.9
2022-08-22T03:35:31.089Z,51.97
2022-08-22T03:36:35.494Z,52.03
2022-08-22T03:37:39.850Z,52
2022-08-22T03:38:44.311Z,52.04
2022-08-22T03:39:48.935Z,52
2022-08-22T03:40:53.382Z,52.04
2022-08-22T03:41:57.880Z,52.21
2022-08-22T03:43:02.285Z,52.11
2022-08-22T03:44:06.695Z,52.22
2022-08-22T03:45:11.063Z,52.09
2022-08-22T03:46:19.789Z,52.07
2022-08-22T03:47:24.185Z,52.23
2022-08-22T03:48:32.471Z,52.09
2022-08-22T03:49:36.913Z,52.11
2022-08-22T03:50:41.294Z,52.06
2022-08-22T03:51:45.729Z,52.23
2022-08-22T03:52:50.170Z,52.17
2022-08-22T03:53:54.552Z,52.01
2022-08-22T03:54:58.910Z,52
2022-08-22T03:56:03.306Z,52.05
2022-08-22T03:57:07.710Z,52.34
2022-08-22T03:58:29.577Z,52.19
2022-08-22T03:59:33.918Z,51.99
2022-08-22T04:00:39.760Z,52.41
2022-08-22T04:01:44.155Z,51.95
2022-08-22T04:02:48.531Z,51.96
2022-08-22T04:03:55.437Z,52
2022-08-22T04:04:59.851Z,51.95
2022-08-22T04:06:12.881Z,51.99
2022-08-22T04:07:34.381Z,51.82
2022-08-22T04:08:45.967Z,52.18
2022-08-22T04:09:52.095Z,51.85
2022-08-22T04:10:56.500Z,52.25
2022-08-22T04:12:00.903Z,52.14
2022-08-22T04:13:05.267Z,52.08
2022-08-22T04:14:09.729Z,51.99
2022-08-22T04:15:14.127Z,52.14
2022-08-22T04:16:18.468Z,52.85
2022-08-22T04:17:22.802Z,52.36
2022-08-22T04:18:27.164Z,52.08
2022-08-22T04:19:31.587Z,52.1
2022-08-22T04:20:35.991Z,52.15
2022-08-22T04:21:40.393Z,52.1
2022-08-22T04:22:44.791Z,51.99
2022-08-22T04:23:49.181Z,51.92
2022-08-22T04:24:54.553Z,51.95
2022-08-22T04:26:00.399Z,51.94
2022-08-22T04:27:12.695Z,51.83
2022-08-22T04:28:17.059Z,51.92
2022-08-22T04:29:21.481Z,52.01
2022-08-22T04:30:25.865Z,51.88
2022-08-22T04:31:30.248Z,51.94
2022-08-22T04:32:34.616Z,51.84
2022-08-22T04:33:39.002Z,51.84
2022-08-22T04:34:43.428Z,51.88
2022-08-22T04:35:47.821Z,51.86
2022-08-22T04:36:52.204Z,51.88
2022-08-22T04:37:56.768Z,51.94
2022-08-22T04:39:01.206Z,51.93
2022-08-22T04:40:05.856Z,52.01
2022-08-22T04:41:10.308Z,51.93
2022-08-22T04:42:34.690Z,51.76
2022-08-22T04:43:39.057Z,51.69
2022-08-22T04:44:43.421Z,51.67
2022-08-22T04:45:47.846Z,51.74
2022-08-22T04:46:52.234Z,51.6
2022-08-22T04:47:56.748Z,51.69
2022-08-22T04:49:03.156Z,51.72
2022-08-22T04:50:07.505Z,51.67
2022-08-22T04:51:12.021Z,51.64
2022-08-22T04:52:16.424Z,51.7
2022-08-22T04:53:20.801Z,51.57
2022-08-22T04:54:25.158Z,51.64
2022-08-22T04:55:29.518Z,51.59
2022-08-22T04:56:33.878Z,51.52
2022-08-22T04:57:38.273Z,51.54
2022-08-22T04:58:42.675Z,51.56
2022-08-22T04:59:48.941Z,51.53
2022-08-22T05:00:55.514Z,51.62
2022-08-22T05:02:00.217Z,51.52
2022-08-22T05:03:04.619Z,51.47
2022-08-22T05:04:09.037Z,51.59
2022-08-22T05:05:15.806Z,51.54
2022-08-22T05:06:22.194Z,51.5
2022-08-22T05:07:26.562Z,51.48
2022-08-22T05:08:30.947Z,51.64
2022-08-22T05:09:35.299Z,51.54
2022-08-22T05:10:39.690Z,51.53
2022-08-22T05:11:44.067Z,51.57
2022-08-22T05:12:48.427Z,51.6
2022-08-22T05:13:52.775Z,51.58
2022-08-22T05:14:57.137Z,51.54
2022-08-22T05:16:01.765Z,51.58
2022-08-22T05:17:06.870Z,51.59
2022-08-22T05:18:11.233Z,51.56
2022-08-22T05:19:31.285Z,51.58
2022-08-22T05:20:36.128Z,51.48
2022-08-22T05:21:40.508Z,51.49
2022-08-22T05:22:44.868Z,51.32
2022-08-22T05:23:49.267Z,51.43
2022-08-22T05:24:53.598Z,51.53
2022-08-22T05:25:57.957Z,51.67
2022-08-22T05:27:02.354Z,51.46
2022-08-22T05:28:06.755Z,51.55
2022-08-22T05:29:11.113Z,51.54
2022-08-22T05:30:15.483Z,51.42
2022-08-22T05:31:25.426Z,51.5
2022-08-22T05:32:29.795Z,51.46
2022-08-22T05:33:34.181Z,51.56
2022-08-22T05:34:38.545Z,51.38
2022-08-22T05:35:49.644Z,51.54
2022-08-22T05:36:55.127Z,51.56
2022-08-22T05:38:00.211Z,51.57
2022-08-22T05:39:04.647Z,51.55
2022-08-22T05:40:09.241Z,51.56
2022-08-22T05:41:13.646Z,51.45
2022-08-22T05:42:18.042Z,51.51
2022-08-22T05:43:22.416Z,51.47
2022-08-22T05:44:26.840Z,51.59
2022-08-22T05:45:31.232Z,51.52
2022-08-22T05:46:35.675Z,51.51
2022-08-22T05:47:40.035Z,51.64
2022-08-22T05:48:45.658Z,51.63
2022-08-22T05:49:50.055Z,51.57
2022-08-22T05:50:55.137Z,51.54
2022-08-22T05:51:59.560Z,51.56
2022-08-22T05:53:04.087Z,51.5
2022-08-22T05:54:08.504Z,51.5
2022-08-22T05:55:12.879Z,51.57
2022-08-22T05:56:17.390Z,51.53
2022-08-22T05:57:21.757Z,51.48
2022-08-22T05:58:26.142Z,51.55
2022-08-22T05:59:30.534Z,51.58
2022-08-22T06:00:34.967Z,51.64
2022-08-22T06:01:39.580Z,51.58
2022-08-22T06:02:43.979Z,51.62
2022-08-22T06:03:49.788Z,51.57
2022-08-22T06:04:54.152Z,51.55
2022-08-22T06:05:58.703Z,51.54
2022-08-22T06:07:03.128Z,51.57
2022-08-22T06:08:07.536Z,51.5
2022-08-22T06:09:11.928Z,51.54
2022-08-22T06:10:16.308Z,51.68
2022-08-22T06:11:24.340Z,51.66
2022-08-22T06:12:30.060Z,51.68
2022-08-22T06:13:34.762Z,51.68
2022-08-22T06:14:42.535Z,51.68
2022-08-22T06:15:49.573Z,51.66
2022-08-22T06:16:53.938Z,51.67
2022-08-22T06:18:00.242Z,51.64
2022-08-22T06:19:20.243Z,51.64
2022-08-22T06:20:24.713Z,51.64
2022-08-22T06:21:37.174Z,51.71
2022-08-22T06:22:44.041Z,51.78
2022-08-22T06:23:48.455Z,51.77
2022-08-22T06:24:52.848Z,51.85
2022-08-22T06:25:57.193Z,51.84
2022-08-22T06:27:01.569Z,51.89
2022-08-22T06:28:05.909Z,51.93
2022-08-22T06:29:10.366Z,51.84
2022-08-22T06:30:14.752Z,51.84
2022-08-22T06:31:19.151Z,51.83
2022-08-22T06:33:02.077Z,51.94
2022-08-22T06:34:06.435Z,51.92
2022-08-22T06:35:10.833Z,51.92
2022-08-22T06:36:21.538Z,51.94
2022-08-22T06:37:25.960Z,51.92
2022-08-22T06:38:30.327Z,51.91
2022-08-22T06:39:34.755Z,51.96
2022-08-22T06:40:39.135Z,52.03
2022-08-22T06:41:43.474Z,52.14
2022-08-22T06:42:47.846Z,52.14
2022-08-22T06:43:52.189Z,52.14
2022-08-22T06:44:56.562Z,52.15
2022-08-22T06:46:01.046Z,52.15
2022-08-22T06:47:05.424Z,52.21
2022-08-22T06:48:09.927Z,52.28
2022-08-22T06:49:14.323Z,52.34
2022-08-22T06:50:18.683Z,52.34
2022-08-22T06:51:26.090Z,52.63
2022-08-22T06:52:32.287Z,52.65
2022-08-22T06:53:36.683Z,52.82
2022-08-22T06:54:43.950Z,52.79
2022-08-22T06:55:48.338Z,52.72
2022-08-22T06:56:52.679Z,52.66
2022-08-22T06:57:57.171Z,52.73
2022-08-22T06:59:01.559Z,52.77
2022-08-22T07:00:05.969Z,52.84
2022-08-22T07:01:13.863Z,52.81
2022-08-22T07:02:19.545Z,52.75
2022-08-22T07:03:23.910Z,52.83
2022-08-22T07:04:28.293Z,52.88
2022-08-22T07:05:32.682Z,52.8
2022-08-22T07:06:37.560Z,52.87
2022-08-22T07:07:41.920Z,52.81
2022-08-22T07:08:46.297Z,52.9
2022-08-22T07:09:50.660Z,52.83
2022-08-22T07:10:55.058Z,52.88
2022-08-22T07:11:59.418Z,52.96
2022-08-22T07:13:03.770Z,52.9
2022-08-22T07:14:08.138Z,52.99
2022-08-22T07:15:12.499Z,52.97
2022-08-22T07:16:16.874Z,52.95
2022-08-22T07:17:21.531Z,52.91
2022-08-22T07:18:25.978Z,52.98
2022-08-22T07:19:30.347Z,53.08
2022-08-22T07:20:34.735Z,53.08
2022-08-22T07:21:40.488Z,53.09
2022-08-22T07:22:44.910Z,53.22
2022-08-22T07:23:49.262Z,53.22
2022-08-22T07:24:56.512Z,53.25
2022-08-22T07:26:00.862Z,53.15
2022-08-22T07:27:08.427Z,53.31
2022-08-22T07:28:18.165Z,53.37
2022-08-22T07:29:25.097Z,53.42
2022-08-22T07:30:30.620Z,53.42
2022-08-22T07:31:35.192Z,53.33
2022-08-22T07:32:39.656Z,53.27
2022-08-22T07:33:43.998Z,53.22
2022-08-22T07:34:48.369Z,53.25
2022-08-22T07:35:55.760Z,53.16
2022-08-22T07:37:01.010Z,53.42
2022-08-22T07:38:06.623Z,53.39
2022-08-22T07:39:13.109Z,53.41
2022-08-22T07:40:17.964Z,53.35
2022-08-22T07:41:22.338Z,53.42
2022-08-22T07:42:31.728Z,53.54
2022-08-22T07:43:36.145Z,53.58
2022-08-22T07:44:40.500Z,53.45
2022-08-22T07:45:44.845Z,53.49
2022-08-22T07:46:49.206Z,53.49
2022-08-22T07:47:53.525Z,53.48
2022-08-22T07:49:11.387Z,53.54
2022-08-22T07:50:15.767Z,53.61
2022-08-22T07:51:20.249Z,53.6
2022-08-22T07:52:24.596Z,53.55
2022-08-22T07:53:28.983Z,53.52
2022-08-22T07:54:33.334Z,53.53
2022-08-22T07:55:51.755Z,53.5
2022-08-22T07:56:56.164Z,53.64
2022-08-22T07:58:01.462Z,53.63
2022-08-22T07:59:14.786Z,53.63
2022-08-22T08:00:19.168Z,53.58
2022-08-22T08:01:23.868Z,53.56
2022-08-22T08:02:28.286Z,53.59
2022-08-22T08:03:32.625Z,53.51
2022-08-22T08:04:42.171Z,53.46
2022-08-22T08:05:46.528Z,53.48
2022-08-22T08:06:50.896Z,53.39
2022-08-22T08:07:55.351Z,53.49
2022-08-22T08:08:59.718Z,53.56
2022-08-22T08:10:04.304Z,53.63
2022-08-22T08:11:08.659Z,53.64
2022-08-22T08:12:13.002Z,53.73
2022-08-22T08:13:17.365Z,53.69
2022-08-22T08:14:21.693Z,53.67
2022-08-22T08:15:28.616Z,53.66
2022-08-22T08:16:35.962Z,53.74
2022-08-22T08:17:40.343Z,53.69
2022-08-22T08:18:46.791Z,53.74
2022-08-22T08:19:51.152Z,53.7
2022-08-22T08:20:58.715Z,53.74
2022-08-22T08:22:03.069Z,53.66
2022-08-22T08:23:07.485Z,53.77
2022-08-22T08:24:12.207Z,53.78
2022-08-22T08:25:16.855Z,53.83
2022-08-22T08:26:21.289Z,53.87
2022-08-22T08:27:25.720Z,53.86
2022-08-22T08:28:30.120Z,53.87
2022-08-22T08:29:34.484Z,53.93
2022-08-22T08:30:38.843Z,53.99
2022-08-22T08:31:47.000Z,54.04
2022-08-22T08:32:57.380Z,54.09
2022-08-22T08:34:28.550Z,54.08
2022-08-22T08:36:04.552Z,54.19
2022-08-22T08:37:08.904Z,54.18
2022-08-22T08:38:17.012Z,54.1
2022-08-22T08:39:21.387Z,54.14
2022-08-22T08:40:26.036Z,54.06
2022-08-22T08:41:30.424Z,54.15
2022-08-22T08:42:34.781Z,54.13
2022-08-22T08:43:39.128Z,54.21
2022-08-22T08:44:43.514Z,54.18
2022-08-22T08:45:47.862Z,54.17
2022-08-22T08:46:57.665Z,54.21
2022-08-22T08:48:02.643Z,54.22
2022-08-22T08:49:09.611Z,54.31
2022-08-22T08:50:14.726Z,54.29
2022-08-22T08:51:19.682Z,54.33
2022-08-22T08:52:27.936Z,54.3
2022-08-22T08:53:33.371Z,54.31
2022-08-22T08:54:38.540Z,54.34
2022-08-22T08:55:45.781Z,54.4
2022-08-22T08:56:56.446Z,54.45
2022-08-22T08:58:11.398Z,54.39
2022-08-22T08:59:16.707Z,54.3
2022-08-22T09:00:21.062Z,54.49
2022-08-22T09:01:31.427Z,54.39
2022-08-22T09:02:43.536Z,54.46
2022-08-22T09:03:47.881Z,54.47
2022-08-22T09:04:55.710Z,54.66
2022-08-22T09:06:00.076Z,54.69
2022-08-22T09:07:06.344Z,54.59
2022-08-22T09:08:13.970Z,54.5
2022-08-22T09:09:18.600Z,54.54
2022-08-22T09:10:23.059Z,54.59
2022-08-22T09:11:31.768Z,54.59
2022-08-22T09:12:36.129Z,54.65
2022-08-22T09:13:43.077Z,54.75
2022-08-22T09:14:48.815Z,54.67
2022-08-22T09:16:06.711Z,54.85
2022-08-22T09:17:14.474Z,54.72
2022-08-22T09:59:59.668Z,55.82
2022-08-22T10:01:04.301Z,55.82
2022-08-22T10:02:17.627Z,55.83
2022-08-22T10:03:23.053Z,55.87
2022-08-22T10:04:27.397Z,56.02
2022-08-22T10:05:46.077Z,56.27
2022-08-22T10:06:51.274Z,56.04
2022-08-22T10:07:56.140Z,56.23
2022-08-22T10:09:00.487Z,56.28
2022-08-22T10:10:04.890Z,56.15
2022-08-22T10:11:10.630Z,56.21
2022-08-22T10:12:16.765Z,56.45
2022-08-22T10:13:22.385Z,56.48
2022-08-22T10:14:27.136Z,56.43
2022-08-22T10:15:32.277Z,56.61
2022-08-22T10:16:36.642Z,56.69
2022-08-22T10:17:43.392Z,56.9
2022-08-22T10:19:01.251Z,56.85
2022-08-22T10:20:11.797Z,57.16
2022-08-22T10:21:17.875Z,57.19
2022-08-22T10:22:22.310Z,56.76
2022-08-22T10:23:26.968Z,56.89
2022-08-22T10:24:43.908Z,57.01
2022-08-22T10:25:48.528Z,56.98
2022-08-22T10:26:53.329Z,57.29
2022-08-22T10:27:57.725Z,56.86
2022-08-22T10:29:02.117Z,56.96
2022-08-22T10:30:06.725Z,57.22
2022-08-22T10:31:12.465Z,57.26
2022-08-22T10:32:27.916Z,57.29
2022-08-22T10:33:33.053Z,57.39
2022-08-22T10:34:37.406Z,57.55
2022-08-22T10:35:44.331Z,57.38
2022-08-22T10:36:49.642Z,57.32
2022-08-22T10:37:55.334Z,57.3
2022-08-22T10:39:01.466Z,57.65
2022-08-22T10:40:14.049Z,57.51
2022-08-22T10:41:23.561Z,57.42
2022-08-22T10:42:36.394Z,57.58
2022-08-22T10:43:42.901Z,57.74
2022-08-22T10:44:49.033Z,57.9
2022-08-22T10:45:54.340Z,57.81
2022-08-22T10:46:59.259Z,57.75
2022-08-22T10:48:03.628Z,57.75
2022-08-22T10:49:20.515Z,57.85
2022-08-22T10:50:33.012Z,57.82
2022-08-22T10:51:38.754Z,57.7
2022-08-22T10:52:44.513Z,57.58
2022-08-22T10:53:52.285Z,57.59
2022-08-22T10:54:56.722Z,57.48
2022-08-22T10:56:01.140Z,57.38
2022-08-22T10:57:09.343Z,57.33
2022-08-22T10:58:14.265Z,57.28
2022-08-22T10:59:23.868Z,57.43
2022-08-22T11:00:28.346Z,57.64
2022-08-22T11:01:43.283Z,57.96
2022-08-22T11:02:47.968Z,58.52
2022-08-22T11:03:57.678Z,58.58
2022-08-22T11:05:02.048Z,58.75
2022-08-22T11:06:07.009Z,58.91
2022-08-22T11:07:14.644Z,58.87
2022-08-22T11:08:19.771Z,58.87
2022-08-22T11:09:24.105Z,59.13
2022-08-22T11:10:29.122Z,59.39
2022-08-22T11:11:34.928Z,59.36
2022-08-22T11:12:45.467Z,59.41
2022-08-22T11:13:51.738Z,59.32
2022-08-22T11:14:57.804Z,59.41
2022-08-22T11:16:05.344Z,59.27
2022-08-22T11:17:38.192Z,59.33
2022-08-22T11:19:16.128Z,59.11
2022-08-22T11:20:22.525Z,59.05
2022-08-22T11:21:30.770Z,59.12
2022-08-22T11:22:35.268Z,58.98
2022-08-22T11:23:40.863Z,58.79
2022-08-22T11:25:04.557Z,58.67
2022-08-22T11:26:09.900Z,58.68
2022-08-22T11:27:25.443Z,58.76
2022-08-22T11:28:42.876Z,58.58
2022-08-22T11:29:50.824Z,58.48
2022-08-22T11:30:56.451Z,58.48
2022-08-22T11:32:08.963Z,58.37
2022-08-22T11:33:15.778Z,58.51
2022-08-22T11:34:22.646Z,58.42
2022-08-22T11:35:29.917Z,58.21
2022-08-22T11:36:35.232Z,58.29
2022-08-22T11:37:45.288Z,58.51
2022-08-22T11:38:52.088Z,58.27
2022-08-22T11:39:56.647Z,58.09
2022-08-22T11:41:02.086Z,58.3
2022-08-22T11:42:08.452Z,58.26
2022-08-22T11:43:21.447Z,57.96
2022-08-22T11:44:27.932Z,58.24
2022-08-22T11:45:33.725Z,58.35
2022-08-22T11:46:38.178Z,58.39
2022-08-22T11:47:44.348Z,58.33
2022-08-22T11:48:50.742Z,58.31
2022-08-22T11:49:55.175Z,58.31
2022-08-22T11:50:59.612Z,58.35
2022-08-22T11:52:03.956Z,58.66
2022-08-22T11:53:10.093Z,58.8
2022-08-22T11:54:14.841Z,58.42
2022-08-22T11:55:19.726Z,58.46
2022-08-22T11:56:26.350Z,58.27
2022-08-22T11:57:31.215Z,58.45
2022-08-22T11:58:35.979Z,58.61
2022-08-22T11:59:44.994Z,58.5
2022-08-22T12:00:49.416Z,58.66
2022-08-22T12:01:54.093Z,58.58
2022-08-22T12:02:59.379Z,58.28
2022-08-22T12:04:05.479Z,58.03
2022-08-22T12:05:27.474Z,58.33
2022-08-22T12:06:35.742Z,58.33
2022-08-22T12:07:41.618Z,58.31
2022-08-22T12:08:45.956Z,58.29
2022-08-22T12:09:51.679Z,58.19
2022-08-22T12:10:58.886Z,58.19
2022-08-22T12:12:06.574Z,58.35
2022-08-22T12:13:11.014Z,58.2
2022-08-22T12:14:16.167Z,58.17
2022-08-22T12:15:22.282Z,58.25
2022-08-22T12:16:27.039Z,58.07
2022-08-22T12:18:02.903Z,57.9
2022-08-22T12:19:08.939Z,57.92
2022-08-22T12:20:20.931Z,58.21
2022-08-22T12:21:26.186Z,57.93
2022-08-22T12:22:31.180Z,58.08
2022-08-22T12:23:51.448Z,57.98
2022-08-22T12:25:02.256Z,57.81
2022-08-22T12:26:13.054Z,58.05
2022-08-22T12:27:30.252Z,58.08
2022-08-22T12:28:34.698Z,57.91
2022-08-22T12:29:46.559Z,57.89
2022-08-22T12:30:56.703Z,58.05
2022-08-22T12:32:03.071Z,57.99
2022-08-22T12:33:10.653Z,58.05
2022-08-22T12:34:17.816Z,57.73
2022-08-22T12:35:31.851Z,57.92
2022-08-22T12:36:36.219Z,57.95
2022-08-22T12:37:55.141Z,57.85
2022-08-22T12:39:00.745Z,57.85
2022-08-22T12:40:05.311Z,57.7
2022-08-22T12:41:10.478Z,57.71
2022-08-22T12:42:14.822Z,57.53
2022-08-22T12:43:22.808Z,57.43
2022-08-22T12:44:27.623Z,57.39
2022-08-22T12:45:32.246Z,57.4
2022-08-22T12:46:37.078Z,57.57
2022-08-22T12:47:51.493Z,57.23
2022-08-22T12:48:55.876Z,57.47
2022-08-22T12:50:00.256Z,57.31
2022-08-22T12:51:18.592Z,57.25
2022-08-22T12:52:23.534Z,57.24
2022-08-22T12:53:31.566Z,57.17
2022-08-22T12:54:35.905Z,57.15
2022-08-22T12:55:40.760Z,57.12
2022-08-22T12:56:50.153Z,57.18
2022-08-22T12:57:56.463Z,57.18
2022-08-22T12:59:03.542Z,57.27
2022-08-22T13:00:12.687Z,57.11
2022-08-22T13:01:18.525Z,57.14
2022-08-22T13:02:25.415Z,57.08
2022-08-22T13:03:31.668Z,57.22
2022-08-22T13:04:37.461Z,57.13
2022-08-22T13:05:43.873Z,57.23
2022-08-22T13:06:53.291Z,57.25
2022-08-22T13:08:04.462Z,57.03
2022-08-22T13:09:12.157Z,57.05
2022-08-22T13:10:19.392Z,57.11
2022-08-22T13:11:25.578Z,57.08
2022-08-22T13:12:33.679Z,56.9
2022-08-22T13:13:40.708Z,56.9
2022-08-22T13:14:45.053Z,56.8
2022-08-22T13:15:55.746Z,56.91
2022-08-22T13:17:00.101Z,56.99
2022-08-22T13:18:33.265Z,57.03
2022-08-22T13:19:40.163Z,56.97
2022-08-22T13:20:45.920Z,57.12
2022-08-22T13:21:51.015Z,56.94
2022-08-22T13:22:58.029Z,56.76
2022-08-22T13:24:11.293Z,56.7
2022-08-22T13:25:26.659Z,56.91
2022-08-22T13:26:42.956Z,56.99
2022-08-22T13:27:53.946Z,56.97
2022-08-22T13:29:39.273Z,56.86
2022-08-22T13:30:50.784Z,56.82
2022-08-22T13:31:57.329Z,56.93
2022-08-22T13:33:01.727Z,56.85
2022-08-22T13:34:07.620Z,56.89
2022-08-22T13:35:16.449Z,56.93
2022-08-22T13:36:29.788Z,57.02
2022-08-22T13:37:34.175Z,56.84
2022-08-22T13:38:47.226Z,56.77
2022-08-22T13:39:54.838Z,56.88
2022-08-22T13:40:59.238Z,56.82
2022-08-22T13:42:03.696Z,56.83
2022-08-22T13:43:18.555Z,56.9
2022-08-22T13:44:22.897Z,57.17
2022-08-22T13:45:27.767Z,56.91
2022-08-22T13:46:44.462Z,56.96
2022-08-22T13:48:11.306Z,56.89
2022-08-22T13:49:17.056Z,56.97
2022-08-22T13:50:21.426Z,57.03
2022-08-22T13:51:25.876Z,57.06
2022-08-22T13:52:31.979Z,57.16
2022-08-22T13:53:36.869Z,57.08
2022-08-22T13:54:42.302Z,57.35
2022-08-22T13:55:51.131Z,57.72
2022-08-22T13:56:56.298Z,57.61
2022-08-22T13:58:00.684Z,57.52
2022-08-22T13:59:05.873Z,57.41
2022-08-22T14:00:10.448Z,57.94
2022-08-22T14:01:15.545Z,57.56
2022-08-22T14:02:34.269Z,57.33
2022-08-22T14:03:40.770Z,57.34
2022-08-22T14:04:45.182Z,57.37
2022-08-22T14:05:54.179Z,57.39
2022-08-22T14:07:11.614Z,57.55
2022-08-22T14:08:19.541Z,57.67
2022-08-22T14:09:34.735Z,57.61
2022-08-22T14:10:40.477Z,57.82
2022-08-22T14:11:44.888Z,58.13
2022-08-22T14:12:52.811Z,57.79
2022-08-22T14:13:58.830Z,58.44
2022-08-22T14:15:03.505Z,58.04
2022-08-22T14:16:15.999Z,57.89
2022-08-22T14:17:24.251Z,57.8
2022-08-22T14:18:33.484Z,57.5
2022-08-22T14:20:02.722Z,57.59
2022-08-22T14:21:17.520Z,57.82
2022-08-22T14:22:34.907Z,57.92
2022-08-22T14:23:40.167Z,57.94
2022-08-22T14:24:56.800Z,57.84
2022-08-22T14:26:02.569Z,57.83
2022-08-22T14:27:09.265Z,57.75
2022-08-22T14:28:13.955Z,57.85
2022-08-22T14:29:18.373Z,57.78
2022-08-22T14:30:28.161Z,57.89
2022-08-22T14:31:35.014Z,57.86
2022-08-22T14:32:44.480Z,57.79
2022-08-22T14:33:49.323Z,57.76
2022-08-22T14:34:53.887Z,58
2022-08-22T14:35:58.763Z,57.93
2022-08-22T14:37:07.356Z,57.81
2022-08-22T14:38:19.172Z,57.91
2022-08-22T14:39:23.905Z,57.98
2022-08-22T14:40:29.334Z,57.85
2022-08-22T14:42:03.890Z,57.87
2022-08-22T14:43:09.015Z,58.01
2022-08-22T14:44:13.417Z,58.1
2022-08-22T14:45:17.952Z,58.43
2022-08-22T14:46:26.395Z,58.26
2022-08-22T14:48:32.648Z,57.93
2022-08-22T14:49:39.331Z,57.96
2022-08-22T14:50:44.356Z,57.93
2022-08-22T14:51:53.509Z,57.97
2022-08-22T14:52:58.959Z,58.02
2022-08-22T14:54:06.235Z,57.77
2022-08-22T14:55:10.809Z,57.58
2022-08-22T14:56:18.995Z,57.78
2022-08-22T14:57:23.368Z,57.79
2022-08-22T14:58:29.751Z,57.89
2022-08-22T14:59:34.152Z,57.97
2022-08-22T15:00:39.996Z,57.89
2022-08-22T15:01:45.021Z,57.79
2022-08-22T15:02:52.571Z,57.43
2022-08-22T15:03:57.435Z,57.56
2022-08-22T15:05:06.338Z,57.58
2022-08-22T15:06:12.950Z,57.51
2022-08-22T15:07:19.031Z,57.52
2022-08-22T15:08:28.775Z,57.62